sensor_id;sensor_type;location;lat;lon;timestamp;pressure;altitude;pressure_sealevel;temperature;humidity
61035;BME280;46916;40.564;-7.958;2022-12-07T00:00:46;97238.19;;;10.81;100.00
61035;BME280;46916;40.564;-7.958;2022-12-07T00:02:47;97238.06;;;10.83;100.00
61035;BME280;46916;40.564;-7.958;2022-12-07T00:04:49;97237.38;;;10.81;100.00
61035;BME280;46916;40.564;-7.958;2022-12-07T00:06:52;97230.47;;;10.80;100.00
61035;BME280;46916;40.564;-7.958;2022-12-07T00:08:53;97223.19;;;10.74;100.00
61035;BME280;46916;40.564;-7.958;2022-12-07T00:10:54;97221.22;;;10.76;100.00
61035;BME280;46916;40.564;-7.958;2022-12-07T00:12:55;97218.63;;;10.76;100.00
61035;BME280;46916;40.564;-7.958;2022-12-07T00:14:56;97216.81;;;10.76;100.00
61035;BME280;46916;40.564;-7.958;2022-12-07T00:16:56;97214.47;;;10.73;100.00
61035;BME280;46916;40.564;-7.958;2022-12-07T00:18:57;97217.09;;;10.73;100.00
61035;BME280;46916;40.564;-7.958;2022-12-07T00:21:20;97218.06;;;10.72;100.00
61035;BME280;46916;40.564;-7.958;2022-12-07T00:23:21;97222.47;;;10.72;100.00
61035;BME280;46916;40.564;-7.958;2022-12-07T00:25:22;97217.22;;;10.72;100.00
61035;BME280;46916;40.564;-7.958;2022-12-07T00:27:23;97206.34;;;10.66;100.00
61035;BME280;46916;40.564;-7.958;2022-12-07T00:29:24;97215.44;;;10.72;100.00
61035;BME280;46916;40.564;-7.958;2022-12-07T00:31:31;97211.00;;;10.73;100.00
61035;BME280;46916;40.564;-7.958;2022-12-07T00:33:34;97204.69;;;10.65;100.00
61035;BME280;46916;40.564;-7.958;2022-12-07T00:35:35;97204.69;;;10.65;100.00
61035;BME280;46916;40.564;-7.958;2022-12-07T00:37:35;97200.41;;;10.64;100.00
61035;BME280;46916;40.564;-7.958;2022-12-07T00:39:36;97202.91;;;10.66;100.00
61035;BME280;46916;40.564;-7.958;2022-12-07T00:41:37;97210.59;;;10.68;100.00
61035;BME280;46916;40.564;-7.958;2022-12-07T00:43:37;97201.78;;;10.69;100.00
61035;BME280;46916;40.564;-7.958;2022-12-07T00:45:38;97198.47;;;10.66;100.00
61035;BME280;46916;40.564;-7.958;2022-12-07T00:47:39;97197.91;;;10.63;100.00
61035;BME280;46916;40.564;-7.958;2022-12-07T00:49:40;97203.00;;;10.64;100.00
61035;BME280;46916;40.564;-7.958;2022-12-07T00:51:40;97189.66;;;10.58;100.00
61035;BME280;46916;40.564;-7.958;2022-12-07T00:53:41;97196.53;;;10.59;100.00
61035;BME280;46916;40.564;-7.958;2022-12-07T00:55:42;97187.44;;;10.53;100.00
61035;BME280;46916;40.564;-7.958;2022-12-07T00:57:43;97193.50;;;10.54;100.00
61035;BME280;46916;40.564;-7.958;2022-12-07T00:59:44;97179.44;;;10.45;100.00
61035;BME280;46916;40.564;-7.958;2022-12-07T01:01:45;97182.31;;;10.52;100.00
61035;BME280;46916;40.564;-7.958;2022-12-07T01:03:45;97178.19;;;10.49;100.00
61035;BME280;46916;40.564;-7.958;2022-12-07T01:05:54;97172.53;;;10.44;100.00
61035;BME280;46916;40.564;-7.958;2022-12-07T01:07:55;97164.81;;;10.43;100.00
61035;BME280;46916;40.564;-7.958;2022-12-07T01:09:56;97167.28;;;10.44;100.00
61035;BME280;46916;40.564;-7.958;2022-12-07T01:11:56;97172.09;;;10.49;100.00
61035;BME280;46916;40.564;-7.958;2022-12-07T01:13:59;97172.00;;;10.50;100.00
61035;BME280;46916;40.564;-7.958;2022-12-07T01:16:02;97173.63;;;10.51;100.00
61035;BME280;46916;40.564;-7.958;2022-12-07T01:18:04;97169.13;;;10.53;100.00
61035;BME280;46916;40.564;-7.958;2022-12-07T01:20:05;97156.28;;;10.50;100.00
61035;BME280;46916;40.564;-7.958;2022-12-07T01:22:06;97156.53;;;10.47;100.00
61035;BME280;46916;40.564;-7.958;2022-12-07T01:24:09;97165.94;;;10.50;100.00
61035;BME280;46916;40.564;-7.958;2022-12-07T01:26:14;97172.66;;;10.52;100.00
61035;BME280;46916;40.564;-7.958;2022-12-07T01:28:15;97161.53;;;10.50;100.00
61035;BME280;46916;40.564;-7.958;2022-12-07T01:30:15;97172.81;;;10.51;100.00
61035;BME280;46916;40.564;-7.958;2022-12-07T01:32:16;97157.94;;;10.51;100.00
61035;BME280;46916;40.564;-7.958;2022-12-07T01:34:17;97159.72;;;10.51;100.00
61035;BME280;46916;40.564;-7.958;2022-12-07T01:36:36;97158.75;;;10.52;100.00
61035;BME280;46916;40.564;-7.958;2022-12-07T01:38:37;97150.47;;;10.47;100.00
61035;BME280;46916;40.564;-7.958;2022-12-07T01:40:38;97155.56;;;10.48;99.75
61035;BME280;46916;40.564;-7.958;2022-12-07T01:42:39;97156.53;;;10.47;100.00
61035;BME280;46916;40.564;-7.958;2022-12-07T01:47:17;97158.19;;;10.48;99.91
61035;BME280;46916;40.564;-7.958;2022-12-07T01:49:40;97152.03;;;10.49;99.91
61035;BME280;46916;40.564;-7.958;2022-12-07T01:51:40;97149.25;;;10.51;99.81
61035;BME280;46916;40.564;-7.958;2022-12-07T01:53:43;97142.47;;;10.48;100.00
61035;BME280;46916;40.564;-7.958;2022-12-07T01:55:49;97147.88;;;10.47;100.00
61035;BME280;46916;40.564;-7.958;2022-12-07T01:57:52;97152.41;;;10.45;100.00
61035;BME280;46916;40.564;-7.958;2022-12-07T01:59:55;97148.00;;;10.45;100.00
61035;BME280;46916;40.564;-7.958;2022-12-07T02:01:56;97146.50;;;10.43;100.00
61035;BME280;46916;40.564;-7.958;2022-12-07T02:03:57;97150.47;;;10.47;100.00
61035;BME280;46916;40.564;-7.958;2022-12-07T02:05:59;97160.13;;;10.46;100.00
61035;BME280;46916;40.564;-7.958;2022-12-07T02:08:01;97139.47;;;10.43;100.00
61035;BME280;46916;40.564;-7.958;2022-12-07T02:10:35;97159.88;;;10.49;100.00
61035;BME280;46916;40.564;-7.958;2022-12-07T02:12:36;97155.47;;;10.50;100.00
61035;BME280;46916;40.564;-7.958;2022-12-07T02:14:36;97146.22;;;10.46;100.00
61035;BME280;46916;40.564;-7.958;2022-12-07T02:16:41;97150.34;;;10.48;99.94
61035;BME280;46916;40.564;-7.958;2022-12-07T02:19:57;97155.47;;;10.50;99.85
61035;BME280;46916;40.564;-7.958;2022-12-07T02:21:41;97141.94;;;10.45;99.49
61035;BME280;46916;40.564;-7.958;2022-12-07T02:28:36;97156.41;;;10.39;99.81
61035;BME280;46916;40.564;-7.958;2022-12-07T02:30:40;97153.22;;;10.35;100.00
61035;BME280;46916;40.564;-7.958;2022-12-07T02:32:51;97151.84;;;10.31;100.00
61035;BME280;46916;40.564;-7.958;2022-12-07T02:35:11;97160.66;;;10.30;100.00
61035;BME280;46916;40.564;-7.958;2022-12-07T02:37:21;97155.09;;;10.24;100.00
61035;BME280;46916;40.564;-7.958;2022-12-07T02:39:50;97158.44;;;10.26;100.00
61035;BME280;46916;40.564;-7.958;2022-12-07T02:41:58;97150.16;;;10.21;100.00
61035;BME280;46916;40.564;-7.958;2022-12-07T02:44:04;97152.19;;;10.17;100.00
61035;BME280;46916;40.564;-7.958;2022-12-07T02:46:16;97148.03;;;10.14;100.00
61035;BME280;46916;40.564;-7.958;2022-12-07T02:48:18;97137.41;;;10.06;100.00
61035;BME280;46916;40.564;-7.958;2022-12-07T02:50:21;97138.94;;;10.09;100.00
61035;BME280;46916;40.564;-7.958;2022-12-07T02:52:22;97129.72;;;10.05;100.00
61035;BME280;46916;40.564;-7.958;2022-12-07T02:54:23;97135.78;;;10.05;100.00
61035;BME280;46916;40.564;-7.958;2022-12-07T02:56:48;97141.00;;;10.05;100.00
61035;BME280;46916;40.564;-7.958;2022-12-07T03:01:19;97119.66;;;10.00;100.00
61035;BME280;46916;40.564;-7.958;2022-12-07T03:03:24;97135.34;;;10.00;100.00
61035;BME280;46916;40.564;-7.958;2022-12-07T03:08:34;97125.56;;;10.02;100.00
61035;BME280;46916;40.564;-7.958;2022-12-07T03:10:57;97118.69;;;10.01;100.00
61035;BME280;46916;40.564;-7.958;2022-12-07T03:17:46;97111.34;;;9.95;100.00
61035;BME280;46916;40.564;-7.958;2022-12-07T03:19:49;97101.28;;;9.90;100.00
61035;BME280;46916;40.564;-7.958;2022-12-07T03:21:59;97104.72;;;9.91;100.00
61035;BME280;46916;40.564;-7.958;2022-12-07T03:24:04;97102.25;;;9.89;100.00
61035;BME280;46916;40.564;-7.958;2022-12-07T03:26:09;97107.50;;;9.89;100.00
61035;BME280;46916;40.564;-7.958;2022-12-07T03:28:13;97094.28;;;9.91;100.00
61035;BME280;46916;40.564;-7.958;2022-12-07T03:30:24;97098.28;;;9.95;100.00
61035;BME280;46916;40.564;-7.958;2022-12-07T03:32:41;97099.66;;;9.99;100.00
61035;BME280;46916;40.564;-7.958;2022-12-07T03:34:52;97094.31;;;10.01;100.00
61035;BME280;46916;40.564;-7.958;2022-12-07T03:37:02;97096.78;;;10.02;100.00
61035;BME280;46916;40.564;-7.958;2022-12-07T03:41:12;97065.66;;;9.99;100.00
61035;BME280;46916;40.564;-7.958;2022-12-07T03:43:18;97072.41;;;10.02;100.00
61035;BME280;46916;40.564;-7.958;2022-12-07T03:45:23;97073.38;;;10.01;100.00
61035;BME280;46916;40.564;-7.958;2022-12-07T03:52:27;97083.13;;;9.99;100.00
61035;BME280;46916;40.564;-7.958;2022-12-07T03:54:46;97078.63;;;10.01;100.00
61035;BME280;46916;40.564;-7.958;2022-12-07T03:56:49;97080.00;;;10.05;100.00
61035;BME280;46916;40.564;-7.958;2022-12-07T03:58:52;97076.56;;;10.04;100.00
61035;BME280;46916;40.564;-7.958;2022-12-07T04:00:53;97079.84;;;10.06;100.00
61035;BME280;46916;40.564;-7.958;2022-12-07T04:02:55;97088.41;;;10.08;99.85
61035;BME280;46916;40.564;-7.958;2022-12-07T04:04:56;97076.81;;;10.01;99.65
61035;BME280;46916;40.564;-7.958;2022-12-07T04:06:56;97088.25;;;10.00;100.00
61035;BME280;46916;40.564;-7.958;2022-12-07T04:08:57;97077.91;;;9.99;100.00
61035;BME280;46916;40.564;-7.958;2022-12-07T04:10:58;97083.97;;;9.99;99.74
61035;BME280;46916;40.564;-7.958;2022-12-07T04:12:58;97071.03;;;9.98;98.78
61035;BME280;46916;40.564;-7.958;2022-12-07T04:14:59;97085.19;;;9.95;99.17
61035;BME280;46916;40.564;-7.958;2022-12-07T04:17:00;97080.94;;;9.94;99.04
61035;BME280;46916;40.564;-7.958;2022-12-07T04:19:00;97081.06;;;9.92;98.80
61035;BME280;46916;40.564;-7.958;2022-12-07T04:21:01;97075.13;;;9.90;98.85
61035;BME280;46916;40.564;-7.958;2022-12-07T04:23:02;97078.16;;;9.86;98.88
61035;BME280;46916;40.564;-7.958;2022-12-07T04:25:03;97068.09;;;9.81;98.75
61035;BME280;46916;40.564;-7.958;2022-12-07T04:27:04;97057.34;;;9.75;99.06
61035;BME280;46916;40.564;-7.958;2022-12-07T04:29:05;97061.63;;;9.76;99.08
61035;BME280;46916;40.564;-7.958;2022-12-07T04:31:05;97060.09;;;9.83;98.99
61035;BME280;46916;40.564;-7.958;2022-12-07T04:33:06;97068.66;;;9.85;99.27
61035;BME280;46916;40.564;-7.958;2022-12-07T04:35:09;97071.13;;;9.86;99.04
61035;BME280;46916;40.564;-7.958;2022-12-07T04:37:10;97068.53;;;9.86;98.67
61035;BME280;46916;40.564;-7.958;2022-12-07T04:39:27;97056.16;;;9.88;98.27
61035;BME280;46916;40.564;-7.958;2022-12-07T04:41:28;97058.75;;;9.88;98.46
61035;BME280;46916;40.564;-7.958;2022-12-07T04:43:29;97054.75;;;9.84;98.80
61035;BME280;46916;40.564;-7.958;2022-12-07T04:45:30;97052.25;;;9.83;98.91
61035;BME280;46916;40.564;-7.958;2022-12-07T04:47:31;97063.53;;;9.83;98.61
61035;BME280;46916;40.564;-7.958;2022-12-07T04:49:32;97063.00;;;9.80;98.96
61035;BME280;46916;40.564;-7.958;2022-12-07T04:51:32;97059.84;;;9.76;99.15
61035;BME280;46916;40.564;-7.958;2022-12-07T04:53:33;97064.34;;;9.74;98.55
61035;BME280;46916;40.564;-7.958;2022-12-07T04:55:34;97074.00;;;9.74;99.14
61035;BME280;46916;40.564;-7.958;2022-12-07T04:57:34;97062.72;;;9.73;99.08
61035;BME280;46916;40.564;-7.958;2022-12-07T04:59:35;97060.34;;;9.70;98.94
61035;BME280;46916;40.564;-7.958;2022-12-07T05:01:35;97061.75;;;9.74;99.13
61035;BME280;46916;40.564;-7.958;2022-12-07T05:03:37;97052.09;;;9.75;98.79
61035;BME280;46916;40.564;-7.958;2022-12-07T05:05:41;97048.94;;;9.71;98.48
61035;BME280;46916;40.564;-7.958;2022-12-07T05:07:42;97058.88;;;9.77;98.24
61035;BME280;46916;40.564;-7.958;2022-12-07T05:09:42;97070.16;;;9.78;97.86
61035;BME280;46916;40.564;-7.958;2022-12-07T05:11:43;97063.94;;;9.79;97.70
61035;BME280;46916;40.564;-7.958;2022-12-07T05:13:43;97047.84;;;9.74;97.46
61035;BME280;46916;40.564;-7.958;2022-12-07T05:15:46;97048.16;;;9.80;97.55
61035;BME280;46916;40.564;-7.958;2022-12-07T05:17:47;97046.34;;;9.81;97.57
61035;BME280;46916;40.564;-7.958;2022-12-07T05:19:48;97047.31;;;9.80;97.30
61035;BME280;46916;40.564;-7.958;2022-12-07T05:21:48;97052.56;;;9.80;97.58
61035;BME280;46916;40.564;-7.958;2022-12-07T05:23:49;97045.66;;;9.79;97.53
61035;BME280;46916;40.564;-7.958;2022-12-07T05:25:50;97043.03;;;9.79;97.12
61035;BME280;46916;40.564;-7.958;2022-12-07T05:27:51;97052.56;;;9.80;96.82
61035;BME280;46916;40.564;-7.958;2022-12-07T05:29:52;97051.69;;;9.79;97.18
61035;BME280;46916;40.564;-7.958;2022-12-07T05:31:53;97038.78;;;9.78;96.91
61035;BME280;46916;40.564;-7.958;2022-12-07T05:33:54;97044.56;;;9.81;96.56
61035;BME280;46916;40.564;-7.958;2022-12-07T05:35:55;97056.81;;;9.81;96.22
61035;BME280;46916;40.564;-7.958;2022-12-07T05:37:55;97054.47;;;9.78;96.44
61035;BME280;46916;40.564;-7.958;2022-12-07T05:39:57;97056.41;;;9.76;96.88
61035;BME280;46916;40.564;-7.958;2022-12-07T05:41:58;97046.44;;;9.70;96.88
61035;BME280;46916;40.564;-7.958;2022-12-07T05:44:14;97047.53;;;9.67;96.78
61035;BME280;46916;40.564;-7.958;2022-12-07T05:46:14;97044.81;;;9.68;97.01
61035;BME280;46916;40.564;-7.958;2022-12-07T05:48:15;97048.00;;;9.72;96.73
61035;BME280;46916;40.564;-7.958;2022-12-07T05:50:15;97052.41;;;9.72;96.87
61035;BME280;46916;40.564;-7.958;2022-12-07T05:52:18;97051.69;;;9.70;96.83
61035;BME280;46916;40.564;-7.958;2022-12-07T05:54:18;97042.44;;;9.65;96.64
61035;BME280;46916;40.564;-7.958;2022-12-07T05:56:19;97046.72;;;9.66;96.68
61035;BME280;46916;40.564;-7.958;2022-12-07T05:58:20;97040.91;;;9.63;96.49
61035;BME280;46916;40.564;-7.958;2022-12-07T06:00:39;97040.41;;;9.69;96.47
61035;BME280;46916;40.564;-7.958;2022-12-07T06:02:40;97037.63;;;9.71;95.90
61035;BME280;46916;40.564;-7.958;2022-12-07T06:04:43;97024.00;;;9.67;95.69
61035;BME280;46916;40.564;-7.958;2022-12-07T06:06:44;97015.63;;;9.63;95.86
61035;BME280;46916;40.564;-7.958;2022-12-07T06:08:45;97018.91;;;9.65;95.69
61035;BME280;46916;40.564;-7.958;2022-12-07T06:10:47;97020.56;;;9.66;95.99
61035;BME280;46916;40.564;-7.958;2022-12-07T06:13:08;97022.91;;;9.70;95.95
61035;BME280;46916;40.564;-7.958;2022-12-07T06:15:10;97016.03;;;9.68;95.57
61035;BME280;46916;40.564;-7.958;2022-12-07T06:17:13;97016.88;;;9.69;95.91
61035;BME280;46916;40.564;-7.958;2022-12-07T06:19:14;97011.22;;;9.64;96.00
61035;BME280;46916;40.564;-7.958;2022-12-07T06:21:15;97006.00;;;9.64;96.15
61035;BME280;46916;40.564;-7.958;2022-12-07T06:23:16;96999.66;;;9.66;95.92
61035;BME280;46916;40.564;-7.958;2022-12-07T06:25:16;97011.91;;;9.66;95.30
61035;BME280;46916;40.564;-7.958;2022-12-07T06:27:17;97006.00;;;9.64;94.92
61035;BME280;46916;40.564;-7.958;2022-12-07T06:29:18;97006.50;;;9.58;94.66
61035;BME280;46916;40.564;-7.958;2022-12-07T06:31:20;97007.63;;;9.55;94.29
61035;BME280;46916;40.564;-7.958;2022-12-07T06:33:21;97000.44;;;9.48;94.72
61035;BME280;46916;40.564;-7.958;2022-12-07T06:35:21;97003.31;;;9.45;94.66
61035;BME280;46916;40.564;-7.958;2022-12-07T06:37:22;96996.28;;;9.35;93.96
61035;BME280;46916;40.564;-7.958;2022-12-07T06:39:27;97005.03;;;9.25;94.91
61035;BME280;46916;40.564;-7.958;2022-12-07T06:41:28;97006.09;;;9.12;94.93
61035;BME280;46916;40.564;-7.958;2022-12-07T06:43:29;96990.22;;;9.04;95.45
61035;BME280;46916;40.564;-7.958;2022-12-07T06:45:30;96993.81;;;9.03;95.71
61035;BME280;46916;40.564;-7.958;2022-12-07T06:47:30;96995.59;;;9.03;95.81
61035;BME280;46916;40.564;-7.958;2022-12-07T06:49:31;96987.19;;;8.99;95.87
61035;BME280;46916;40.564;-7.958;2022-12-07T06:51:32;96990.31;;;8.93;96.00
61035;BME280;46916;40.564;-7.958;2022-12-07T06:53:33;96991.84;;;8.96;95.77
61035;BME280;46916;40.564;-7.958;2022-12-07T06:55:34;96992.81;;;8.95;96.02
61035;BME280;46916;40.564;-7.958;2022-12-07T06:57:35;97002.16;;;8.97;96.25
61035;BME280;46916;40.564;-7.958;2022-12-07T06:59:35;97002.28;;;8.96;96.63
61035;BME280;46916;40.564;-7.958;2022-12-07T07:01:36;97007.13;;;9.00;96.09
61035;BME280;46916;40.564;-7.958;2022-12-07T07:03:37;97014.72;;;9.03;95.85
61035;BME280;46916;40.564;-7.958;2022-12-07T07:05:37;97015.28;;;9.07;95.81
61035;BME280;46916;40.564;-7.958;2022-12-07T07:07:38;97010.63;;;9.10;95.70
61035;BME280;46916;40.564;-7.958;2022-12-07T07:09:39;97009.41;;;9.14;95.65
61035;BME280;46916;40.564;-7.958;2022-12-07T07:11:39;97009.13;;;9.17;95.85
61035;BME280;46916;40.564;-7.958;2022-12-07T07:13:40;97009.69;;;9.21;95.51
61035;BME280;46916;40.564;-7.958;2022-12-07T07:15:41;97013.00;;;9.23;95.58
61035;BME280;46916;40.564;-7.958;2022-12-07T07:17:41;96995.56;;;9.24;95.81
61035;BME280;46916;40.564;-7.958;2022-12-07T07:19:42;97001.34;;;9.27;95.67
61035;BME280;46916;40.564;-7.958;2022-12-07T07:21:43;96991.81;;;9.26;95.57
61035;BME280;46916;40.564;-7.958;2022-12-07T07:23:43;97003.81;;;9.29;95.51
61035;BME280;46916;40.564;-7.958;2022-12-07T07:25:44;96989.91;;;9.28;95.61
61035;BME280;46916;40.564;-7.958;2022-12-07T07:27:45;96984.13;;;9.25;95.86
61035;BME280;46916;40.564;-7.958;2022-12-07T07:29:46;96976.53;;;9.22;96.01
61035;BME280;46916;40.564;-7.958;2022-12-07T07:31:46;96982.59;;;9.22;96.08
61035;BME280;46916;40.564;-7.958;2022-12-07T07:33:47;96980.84;;;9.23;96.51
61035;BME280;46916;40.564;-7.958;2022-12-07T07:35:48;96972.84;;;9.24;96.37
61035;BME280;46916;40.564;-7.958;2022-12-07T07:37:48;96978.66;;;9.28;96.41
61035;BME280;46916;40.564;-7.958;2022-12-07T07:39:49;96969.97;;;9.27;96.61
61035;BME280;46916;40.564;-7.958;2022-12-07T07:41:50;96971.78;;;9.27;97.01
61035;BME280;46916;40.564;-7.958;2022-12-07T07:43:58;96968.19;;;9.28;96.98
61035;BME280;46916;40.564;-7.958;2022-12-07T07:45:59;96971.47;;;9.20;97.87
61035;BME280;46916;40.564;-7.958;2022-12-07T07:48:00;96957.16;;;9.14;98.11
61035;BME280;46916;40.564;-7.958;2022-12-07T07:50:00;96969.00;;;9.18;98.70
61035;BME280;46916;40.564;-7.958;2022-12-07T07:52:01;96973.25;;;9.20;98.77
61035;BME280;46916;40.564;-7.958;2022-12-07T07:54:03;96965.41;;;9.20;99.34
61035;BME280;46916;40.564;-7.958;2022-12-07T07:56:03;96962.50;;;9.13;99.40
61035;BME280;46916;40.564;-7.958;2022-12-07T07:58:04;96967.31;;;9.17;99.44
61035;BME280;46916;40.564;-7.958;2022-12-07T08:00:07;96974.72;;;9.12;99.25
61035;BME280;46916;40.564;-7.958;2022-12-07T08:02:14;96962.38;;;9.14;99.61
61035;BME280;46916;40.564;-7.958;2022-12-07T08:04:16;96965.09;;;9.13;99.35
61035;BME280;46916;40.564;-7.958;2022-12-07T08:06:19;96969.28;;;9.25;99.88
61035;BME280;46916;40.564;-7.958;2022-12-07T08:08:20;96964.09;;;9.35;99.95
61035;BME280;46916;40.564;-7.958;2022-12-07T08:10:20;96960.94;;;9.41;99.18
61035;BME280;46916;40.564;-7.958;2022-12-07T08:12:21;96967.13;;;9.50;98.46
61035;BME280;46916;40.564;-7.958;2022-12-07T08:14:22;96968.25;;;9.47;97.97
61035;BME280;46916;40.564;-7.958;2022-12-07T08:16:23;96975.53;;;9.53;97.45
61035;BME280;46916;40.564;-7.958;2022-12-07T08:18:23;96979.69;;;9.56;96.79
61035;BME280;46916;40.564;-7.958;2022-12-07T08:20:25;96973.75;;;9.54;96.48
61035;BME280;46916;40.564;-7.958;2022-12-07T08:22:25;96979.41;;;9.59;96.61
61035;BME280;46916;40.564;-7.958;2022-12-07T08:24:26;96981.91;;;9.60;97.11
61035;BME280;46916;40.564;-7.958;2022-12-07T08:26:27;96981.63;;;9.63;96.96
61035;BME280;46916;40.564;-7.958;2022-12-07T08:28:29;96983.97;;;9.66;97.26
61035;BME280;46916;40.564;-7.958;2022-12-07T08:30:32;96979.16;;;9.72;97.18
61035;BME280;46916;40.564;-7.958;2022-12-07T08:32:33;96983.16;;;9.85;97.24
61035;BME280;46916;40.564;-7.958;2022-12-07T08:34:34;96987.88;;;10.01;97.12
61035;BME280;46916;40.564;-7.958;2022-12-07T08:36:40;96997.66;;;10.18;96.70
61035;BME280;46916;40.564;-7.958;2022-12-07T08:38:50;96993.69;;;10.34;96.13
61035;BME280;46916;40.564;-7.958;2022-12-07T08:40:55;96999.84;;;10.52;95.49
61035;BME280;46916;40.564;-7.958;2022-12-07T08:43:04;97002.31;;;10.63;94.12
61035;BME280;46916;40.564;-7.958;2022-12-07T08:45:15;97003.16;;;10.74;92.97
61035;BME280;46916;40.564;-7.958;2022-12-07T08:47:16;97000.50;;;10.83;91.71
61035;BME280;46916;40.564;-7.958;2022-12-07T08:49:44;97002.81;;;10.96;90.98
61035;BME280;46916;40.564;-7.958;2022-12-07T08:51:50;97002.88;;;11.14;89.73
61035;BME280;46916;40.564;-7.958;2022-12-07T08:54:04;96994.72;;;11.27;89.16
61035;BME280;46916;40.564;-7.958;2022-12-07T08:56:09;96995.19;;;11.40;88.65
61035;BME280;46916;40.564;-7.958;2022-12-07T08:58:14;96993.03;;;11.53;87.83
61035;BME280;46916;40.564;-7.958;2022-12-07T09:00:23;96991.59;;;11.69;87.45
61035;BME280;46916;40.564;-7.958;2022-12-07T09:02:33;96999.69;;;11.75;84.32
61035;BME280;46916;40.564;-7.958;2022-12-07T09:04:40;96997.13;;;11.65;84.70
61035;BME280;46916;40.564;-7.958;2022-12-07T09:06:51;97002.38;;;11.65;84.87
61035;BME280;46916;40.564;-7.958;2022-12-07T09:09:00;96997.91;;;11.76;84.66
61035;BME280;46916;40.564;-7.958;2022-12-07T09:11:11;96995.63;;;11.90;84.60
61035;BME280;46916;40.564;-7.958;2022-12-07T09:13:12;96999.22;;;12.07;84.20
61035;BME280;46916;40.564;-7.958;2022-12-07T09:15:20;96998.34;;;12.17;84.14
61035;BME280;46916;40.564;-7.958;2022-12-07T09:17:23;96998.41;;;12.25;83.85
61035;BME280;46916;40.564;-7.958;2022-12-07T09:19:32;96996.53;;;12.35;83.71
61035;BME280;46916;40.564;-7.958;2022-12-07T09:21:39;96997.06;;;12.38;83.02
61035;BME280;46916;40.564;-7.958;2022-12-07T09:23:41;96998.75;;;12.48;83.06
61035;BME280;46916;40.564;-7.958;2022-12-07T09:25:43;97002.59;;;12.53;83.04
61035;BME280;46916;40.564;-7.958;2022-12-07T09:27:44;96998.81;;;12.56;82.94
61035;BME280;46916;40.564;-7.958;2022-12-07T09:29:45;96993.28;;;12.59;82.94
61035;BME280;46916;40.564;-7.958;2022-12-07T09:31:51;96989.53;;;12.61;83.16
61035;BME280;46916;40.564;-7.958;2022-12-07T09:33:57;96995.13;;;12.67;83.15
61035;BME280;46916;40.564;-7.958;2022-12-07T09:36:02;96988.91;;;12.68;83.26
61035;BME280;46916;40.564;-7.958;2022-12-07T09:38:14;96989.59;;;12.70;82.55
61035;BME280;46916;40.564;-7.958;2022-12-07T09:40:27;96980.13;;;12.59;82.12
61035;BME280;46916;40.564;-7.958;2022-12-07T09:42:48;96984.81;;;12.47;82.73
61035;BME280;46916;40.564;-7.958;2022-12-07T09:44:52;96985.25;;;12.43;82.92
61035;BME280;46916;40.564;-7.958;2022-12-07T09:46:53;96981.13;;;12.40;82.79
61035;BME280;46916;40.564;-7.958;2022-12-07T09:48:54;96982.41;;;12.36;83.11
61035;BME280;46916;40.564;-7.958;2022-12-07T09:50:57;96975.06;;;12.39;83.39
61035;BME280;46916;40.564;-7.958;2022-12-07T09:53:14;96985.50;;;12.49;83.75
61035;BME280;46916;40.564;-7.958;2022-12-07T09:55:19;96979.00;;;12.61;83.06
61035;BME280;46916;40.564;-7.958;2022-12-07T09:57:28;96979.38;;;12.67;82.46
61035;BME280;46916;40.564;-7.958;2022-12-07T09:59:29;96986.28;;;12.68;82.06
61035;BME280;46916;40.564;-7.958;2022-12-07T10:01:32;96981.75;;;12.78;82.64
61035;BME280;46916;40.564;-7.958;2022-12-07T10:03:39;96986.44;;;12.92;81.48
61035;BME280;46916;40.564;-7.958;2022-12-07T10:05:44;96978.06;;;12.97;79.89
61035;BME280;46916;40.564;-7.958;2022-12-07T10:07:46;96973.81;;;12.96;80.52
61035;BME280;46916;40.564;-7.958;2022-12-07T10:09:46;96978.59;;;13.00;80.36
61035;BME280;46916;40.564;-7.958;2022-12-07T10:14:13;96981.56;;;13.05;79.47
61035;BME280;46916;40.564;-7.958;2022-12-07T10:18:37;96975.56;;;13.21;79.81
61035;BME280;46916;40.564;-7.958;2022-12-07T10:20:38;96963.69;;;13.35;79.21
61035;BME280;46916;40.564;-7.958;2022-12-07T10:22:54;96965.34;;;13.44;77.78
61035;BME280;46916;40.564;-7.958;2022-12-07T10:25:08;96976.25;;;13.57;76.73
61035;BME280;46916;40.564;-7.958;2022-12-07T10:27:31;96972.63;;;13.58;77.03
61035;BME280;46916;40.564;-7.958;2022-12-07T10:29:36;96974.13;;;13.61;76.11
61035;BME280;46916;40.564;-7.958;2022-12-07T10:31:39;96968.03;;;13.60;75.80
61035;BME280;46916;40.564;-7.958;2022-12-07T10:34:02;96969.88;;;13.68;76.04
61035;BME280;46916;40.564;-7.958;2022-12-07T10:36:24;96969.72;;;13.78;75.33
61035;BME280;46916;40.564;-7.958;2022-12-07T10:38:26;96963.84;;;13.84;74.35
61035;BME280;46916;40.564;-7.958;2022-12-07T10:40:35;96968.75;;;13.87;74.35
61035;BME280;46916;40.564;-7.958;2022-12-07T10:42:36;96961.53;;;13.89;74.43
61035;BME280;46916;40.564;-7.958;2022-12-07T10:44:36;96947.88;;;13.94;73.49
61035;BME280;46916;40.564;-7.958;2022-12-07T10:53:51;96940.63;;;14.04;73.73
61035;BME280;46916;40.564;-7.958;2022-12-07T11:16:30;96901.00;;;14.38;72.20
61035;BME280;46916;40.564;-7.958;2022-12-07T11:24:10;96889.44;;;14.47;69.25
61035;BME280;46916;40.564;-7.958;2022-12-07T11:26:40;96886.66;;;14.49;69.32
61035;BME280;46916;40.564;-7.958;2022-12-07T11:31:24;96879.72;;;14.48;69.86
61035;BME280;46916;40.564;-7.958;2022-12-07T11:34:08;96877.91;;;14.48;69.49
61035;BME280;46916;40.564;-7.958;2022-12-07T11:38:56;96872.63;;;14.48;69.25
61035;BME280;46916;40.564;-7.958;2022-12-07T11:41:02;96870.84;;;14.49;68.89
61035;BME280;46916;40.564;-7.958;2022-12-07T11:43:28;96854.38;;;14.47;68.97
61035;BME280;46916;40.564;-7.958;2022-12-07T11:45:34;96858.53;;;14.49;68.54
61035;BME280;46916;40.564;-7.958;2022-12-07T11:54:30;96853.84;;;14.68;69.41
61035;BME280;46916;40.564;-7.958;2022-12-07T11:56:35;96851.19;;;14.76;69.55
61035;BME280;46916;40.564;-7.958;2022-12-07T12:00:52;96837.94;;;14.92;68.49
61035;BME280;46916;40.564;-7.958;2022-12-07T12:03:10;96838.13;;;14.91;68.38
61035;BME280;46916;40.564;-7.958;2022-12-07T12:05:21;96837.75;;;14.94;68.43
61035;BME280;46916;40.564;-7.958;2022-12-07T12:07:24;96832.97;;;14.97;68.45